Terminal Aerodrome Forecast
Issued by NWS

Home | Current Version | Previous Version | Text Only | Print | Product List | Glossary Off
Versions: 1 2 3 4 5 6 7 8 9 10 11 12 13 14 15

000
FTUS42 KMHX 181100
TAFOAJ
TAF
KOAJ 181120Z 1812/1912 02005KT P6SM SCT080
     FM181400 04005KT P6SM SCT040
     FM181900 04005KT P6SM SCT050
     FM182300 04005KT P6SM SKC
      AMD LTD TO CLD VIS AND WIND=

USA.gov is the U.S. government's official web portal to all federal, state and local government web resources and services.